Time;durP1;ratioP1;P1;durP2;ratioP2;P2;SDS_P1;SDS_P2;PMS_P1;PMS_P2;Temp;Humidity;BMP_temperature;BMP_pressure;BME280_temperature;BME280_humidity;BME280_pressure;Samples;Min_cycle;Max_cycle;Signal;HPM_P1;HPM_P2
2023/09/13 00:01:03;;;;;;;15.90;14.23;;;21.40;99.90;;;;;;5036169;28;20447;-70
2023/09/13 00:03:30;;;;;;;16.60;15.10;;;21.40;99.90;;;;;;5036093;28;20482;-70
2023/09/13 00:05:57;;;;;;;15.33;13.73;;;21.40;99.90;;;;;;5035282;28;20442;-70
2023/09/13 00:08:24;;;;;;;16.27;14.73;;;21.30;99.90;;;;;;5036663;28;20442;-69
2023/09/13 00:10:50;;;;;;;15.47;14.00;;;21.30;99.90;;;;;;5036679;28;20442;-70
2023/09/13 00:13:18;;;;;;;14.90;13.50;;;21.30;99.90;;;;;;5036297;28;20467;-69
2023/09/13 00:15:46;;;;;;;14.37;12.87;;;21.30;99.90;;;;;;5035848;28;20454;-70
2023/09/13 00:18:15;;;;;;;16.20;14.60;;;21.30;99.90;;;;;;5035997;28;20823;-70
2023/09/13 00:20:43;;;;;;;16.37;14.73;;;21.40;99.90;;;;;;5035905;28;20480;-70
2023/09/13 00:23:10;;;;;;;16.87;15.10;;;21.30;99.90;;;;;;5035873;28;20549;-69
2023/09/13 00:25:37;;;;;;;15.87;14.23;;;21.30;99.90;;;;;;5036118;28;20447;-70
2023/09/13 00:28:06;;;;;;;16.67;14.80;;;21.30;99.90;;;;;;5044598;28;20423;-69
2023/09/13 00:30:35;;;;;;;15.30;13.80;;;21.20;99.90;;;;;;5042223;28;20453;-70
2023/09/13 00:33:02;;;;;;;13.50;12.27;;;21.20;99.90;;;;;;5041037;28;20459;-70
2023/09/13 00:35:29;;;;;;;14.00;12.53;;;21.20;99.90;;;;;;5038742;28;20454;-70
2023/09/13 00:37:56;;;;;;;15.10;13.60;;;21.20;99.90;;;;;;5037933;28;20430;-70
2023/09/13 00:40:23;;;;;;;15.30;13.70;;;21.20;99.90;;;;;;5037428;28;20459;-70
2023/09/13 00:42:50;;;;;;;14.87;13.43;;;21.10;99.90;;;;;;5037253;28;20498;-69
2023/09/13 00:45:17;;;;;;;16.63;13.73;;;21.10;99.90;;;;;;5035241;28;20827;-70
2023/09/13 00:47:45;;;;;;;18.43;14.90;;;21.10;99.90;;;;;;5036039;28;20454;-70
2023/09/13 00:50:16;;;;;;;17.40;14.73;;;21.10;99.90;;;;;;5035833;28;20958;-70
2023/09/13 00:52:45;;;;;;;17.43;15.63;;;21.10;99.90;;;;;;5035818;28;20466;-69
2023/09/13 00:55:16;;;;;;;18.07;15.93;;;21.00;99.90;;;;;;5035493;28;20443;-70
2023/09/13 00:57:43;;;;;;;19.40;17.30;;;21.10;99.90;;;;;;5035459;28;20517;-70
2023/09/13 01:00:11;;;;;;;20.17;17.40;;;21.10;99.90;;;;;;5035462;28;20451;-70
2023/09/13 01:02:39;;;;;;;22.53;20.13;;;21.20;99.90;;;;;;5035480;28;20490;-70
2023/09/13 01:05:09;;;;;;;24.20;21.90;;;21.20;99.90;;;;;;5035142;28;20447;-70
2023/09/13 01:07:36;;;;;;;22.90;20.50;;;21.20;99.90;;;;;;5035082;28;20959;-70
2023/09/13 01:10:04;;;;;;;22.20;20.00;;;21.20;99.90;;;;;;5033757;28;20451;-69
2023/09/13 01:12:31;;;;;;;27.10;21.67;;;21.20;99.90;;;;;;5036491;28;20463;-70
2023/09/13 01:14:58;;;;;;;30.37;22.60;;;21.20;99.90;;;;;;5036930;28;20439;-70
2023/09/13 01:17:33;;;;;;;26.00;21.80;;;21.30;99.90;;;;;;5037700;28;20447;-70
2023/09/13 01:20:07;;;;;;;25.13;22.53;;;21.40;99.90;;;;;;5038200;28;20915;-70
2023/09/13 01:25:58;;;;;;;27.90;24.80;;;21.40;99.90;;;;;;5111894;27;20521;-57
2023/09/13 01:28:34;;;;;;;30.77;25.80;;;21.30;99.90;;;;;;5093462;28;20454;-57
2023/09/13 01:31:03;;;;;;;28.67;24.20;;;21.20;99.90;;;;;;5110888;28;20791;-57
2023/09/13 01:33:29;;;;;;;31.00;26.40;;;21.10;99.90;;;;;;5111096;28;20442;-57
2023/09/13 01:35:56;;;;;;;31.67;24.97;;;21.00;99.90;;;;;;5111060;28;20442;-57
2023/09/13 01:38:23;;;;;;;28.70;23.93;;;21.00;99.90;;;;;;5110577;28;20454;-56
2023/09/13 01:40:52;;;;;;;28.30;24.50;;;21.00;99.90;;;;;;5111004;28;20450;-57
2023/09/13 01:43:20;;;;;;;24.70;22.20;;;21.00;99.90;;;;;;5110631;28;20944;-57
2023/09/13 01:45:49;;;;;;;25.57;22.47;;;21.00;99.90;;;;;;5110955;28;20794;-57
2023/09/13 01:48:17;;;;;;;29.40;23.57;;;21.00;99.90;;;;;;5110766;28;20447;-57
2023/09/13 01:50:45;;;;;;;26.90;22.50;;;21.00;99.90;;;;;;5110725;28;20496;-57
2023/09/13 01:53:11;;;;;;;30.00;23.17;;;21.00;99.90;;;;;;5110372;28;20810;-57
2023/09/13 01:55:38;;;;;;;29.00;25.07;;;21.00;99.90;;;;;;5110818;28;20446;-57
2023/09/13 01:58:05;;;;;;;29.73;24.43;;;20.90;99.90;;;;;;5110697;28;20443;-57
2023/09/13 02:00:31;;;;;;;31.13;25.00;;;20.90;99.90;;;;;;5110543;28;20462;-57
2023/09/13 02:02:59;;;;;;;32.93;26.90;;;20.90;99.90;;;;;;5110605;28;20466;-57
2023/09/13 02:05:26;;;;;;;35.50;26.90;;;20.90;99.90;;;;;;5110523;28;20486;-57
2023/09/13 02:07:53;;;;;;;36.60;27.60;;;20.80;99.90;;;;;;5110100;28;20972;-57
2023/09/13 02:10:19;;;;;;;33.90;28.30;;;20.80;99.90;;;;;;5110349;28;20467;-57
2023/09/13 02:12:46;;;;;;;42.97;30.37;;;20.80;99.90;;;;;;5110283;28;20448;-57
2023/09/13 02:15:13;;;;;;;37.60;30.67;;;20.80;99.90;;;;;;5110360;28;20454;-57
2023/09/13 02:17:41;;;;;;;41.43;30.90;;;20.80;99.90;;;;;;5110268;28;20485;-57
2023/09/13 02:20:12;;;;;;;45.53;32.97;;;20.90;99.90;;;;;;5110075;28;20455;-57
2023/09/13 02:22:38;;;;;;;40.80;32.10;;;20.90;99.90;;;;;;5110242;28;20458;-57
2023/09/13 02:25:06;;;;;;;44.00;33.30;;;20.90;99.90;;;;;;5109779;28;20478;-57
2023/09/13 02:27:34;;;;;;;42.90;32.43;;;20.90;99.90;;;;;;5110168;28;20467;-57
2023/09/13 02:30:03;;;;;;;47.33;35.03;;;20.90;99.90;;;;;;5109610;28;21078;-57
2023/09/13 02:32:30;;;;;;;45.80;32.53;;;20.90;99.90;;;;;;5109731;28;21005;-57
2023/09/13 02:34:57;;;;;;;51.13;34.93;;;20.90;99.90;;;;;;5105341;28;20822;-56
2023/09/13 02:37:25;;;;;;;48.53;35.53;;;20.90;99.90;;;;;;5096327;28;20821;-57
2023/09/13 02:39:51;;;;;;;49.33;36.57;;;20.90;99.90;;;;;;5096231;28;20467;-57
2023/09/13 02:42:18;;;;;;;50.67;35.30;;;20.90;99.90;;;;;;5096215;28;20490;-57
2023/09/13 02:44:45;;;;;;;54.37;38.27;;;20.90;99.90;;;;;;5096011;28;20472;-57
2023/09/13 02:47:11;;;;;;;51.03;36.80;;;20.80;99.90;;;;;;5096166;28;20439;-57
2023/09/13 02:49:38;;;;;;;50.67;36.63;;;20.80;99.90;;;;;;5096081;28;20460;-57
2023/09/13 02:52:05;;;;;;;53.70;35.63;;;20.80;99.90;;;;;;5096037;28;20451;-57
2023/09/13 02:54:34;;;;;;;52.80;35.43;;;20.80;99.90;;;;;;5096023;28;20440;-57
2023/09/13 02:57:01;;;;;;;53.13;36.87;;;20.80;99.90;;;;;;5095597;28;20813;-57
2023/09/13 02:59:27;;;;;;;47.47;36.57;;;20.80;99.90;;;;;;5095985;28;20460;-57
2023/09/13 03:01:54;;;;;;;52.30;35.97;;;20.80;99.90;;;;;;5095913;28;20444;-57
2023/09/13 03:04:20;;;;;;;51.87;37.20;;;20.80;99.90;;;;;;5095793;28;20486;-57
2023/09/13 03:06:47;;;;;;;51.93;36.03;;;20.70;99.90;;;;;;5095779;28;20447;-57
2023/09/13 03:09:14;;;;;;;57.53;38.37;;;20.70;99.90;;;;;;5095750;28;20468;-57
2023/09/13 03:11:43;;;;;;;51.63;37.73;;;20.70;99.90;;;;;;5095818;28;20455;-58
2023/09/13 03:14:10;;;;;;;50.90;37.07;;;20.80;99.90;;;;;;5095760;28;20958;-58
2023/09/13 03:16:38;;;;;;;57.03;37.37;;;20.70;99.90;;;;;;5095699;28;20444;-58
2023/09/13 03:19:05;;;;;;;58.07;38.57;;;20.80;99.90;;;;;;5095529;28;20459;-58
2023/09/13 03:21:32;;;;;;;58.30;39.13;;;20.80;99.90;;;;;;5095430;28;20448;-58
2023/09/13 03:23:59;;;;;;;61.70;40.37;;;20.80;99.90;;;;;;5095131;28;20510;-58
2023/09/13 03:26:26;;;;;;;57.20;39.33;;;20.80;99.90;;;;;;5095488;28;20467;-58
2023/09/13 03:28:56;;;;;;;69.83;41.33;;;20.80;99.90;;;;;;5095679;28;20460;-58
2023/09/13 03:31:24;;;;;;;61.47;42.27;;;20.80;99.90;;;;;;5095804;28;20436;-58
2023/09/13 03:33:53;;;;;;;57.70;40.80;;;20.90;99.90;;;;;;5095555;28;20530;-58
2023/09/13 03:36:20;;;;;;;59.53;43.53;;;20.90;99.90;;;;;;5095277;28;20444;-58
2023/09/13 03:38:47;;;;;;;68.23;43.70;;;21.00;99.90;;;;;;5095179;28;20915;-58
2023/09/13 03:41:16;;;;;;;62.00;45.97;;;21.00;99.90;;;;;;5094975;28;20957;-57
2023/09/13 03:43:43;;;;;;;63.63;44.97;;;21.00;99.90;;;;;;5095033;28;20941;-57
2023/09/13 03:46:11;;;;;;;66.47;44.70;;;21.00;99.90;;;;;;5095132;28;20443;-58
2023/09/13 03:48:39;;;;;;;68.27;46.27;;;21.10;99.90;;;;;;5093888;28;20981;-58
2023/09/13 03:51:07;;;;;;;75.83;47.23;;;21.10;99.90;;;;;;5094956;28;20504;-57
2023/09/13 03:53:33;;;;;;;68.10;46.93;;;21.10;99.90;;;;;;5094966;28;20451;-57
2023/09/13 03:56:01;;;;;;;72.03;47.77;;;21.10;99.90;;;;;;5094985;28;20446;-58
2023/09/13 03:58:28;;;;;;;71.27;48.43;;;21.10;99.90;;;;;;5094872;28;20442;-57
2023/09/13 04:00:55;;;;;;;64.77;46.63;;;21.10;99.90;;;;;;5094903;28;20946;-57
2023/09/13 04:03:25;;;;;;;78.33;50.03;;;21.10;99.90;;;;;;5094765;28;20439;-58
2023/09/13 04:05:51;;;;;;;82.43;49.93;;;21.10;99.90;;;;;;5094344;28;21043;-58
2023/09/13 04:08:18;;;;;;;79.77;51.10;;;21.00;99.90;;;;;;5094666;28;20443;-58
2023/09/13 04:10:45;;;;;;;78.33;53.97;;;21.00;99.90;;;;;;5094548;28;20442;-57
2023/09/13 04:13:11;;;;;;;79.70;53.10;;;20.80;99.90;;;;;;5094455;28;20455;-57
2023/09/13 04:15:38;;;;;;;76.10;51.40;;;20.70;99.90;;;;;;5094516;28;20436;-57
2023/09/13 04:18:08;;;;;;;77.30;52.00;;;20.60;99.90;;;;;;5094464;28;20453;-57
2023/09/13 04:20:35;;;;;;;84.73;53.50;;;20.60;99.90;;;;;;5094382;28;20464;-57
2023/09/13 04:23:02;;;;;;;88.07;53.40;;;20.50;99.90;;;;;;5094064;28;20446;-58
2023/09/13 04:25:29;;;;;;;80.43;53.20;;;20.40;99.90;;;;;;5094266;28;20463;-57
2023/09/13 04:27:56;;;;;;;79.47;51.00;;;20.40;99.90;;;;;;5094327;28;20845;-58
2023/09/13 04:30:22;;;;;;;79.23;49.33;;;20.40;99.90;;;;;;5094158;28;20471;-57
2023/09/13 04:32:49;;;;;;;85.73;53.13;;;20.40;99.90;;;;;;5094069;28;20447;-57
2023/09/13 04:35:17;;;;;;;72.67;49.63;;;20.40;99.90;;;;;;5094161;28;20455;-58
2023/09/13 04:37:45;;;;;;;76.77;50.50;;;20.30;99.90;;;;;;5094051;28;20863;-57
2023/09/13 04:40:12;;;;;;;74.80;49.30;;;20.30;99.90;;;;;;5093996;28;20524;-58
2023/09/13 04:42:43;;;;;;;69.70;46.87;;;20.20;99.90;;;;;;5093890;28;20554;-57
2023/09/13 04:45:10;;;;;;;68.70;46.00;;;20.20;99.90;;;;;;5094037;28;20871;-57
2023/09/13 04:47:37;;;;;;;67.07;43.77;;;20.20;99.90;;;;;;5093979;28;20440;-57
2023/09/13 04:50:05;;;;;;;63.50;45.80;;;20.10;99.90;;;;;;5093788;28;20494;-57
2023/09/13 04:52:31;;;;;;;61.00;43.00;;;20.00;99.90;;;;;;5093866;28;20451;-57
2023/09/13 04:54:59;;;;;;;61.40;41.33;;;20.00;99.90;;;;;;5093857;28;20442;-58
2023/09/13 04:57:26;;;;;;;60.73;41.37;;;20.00;99.90;;;;;;5093768;28;20440;-58
2023/09/13 04:59:53;;;;;;;57.30;41.63;;;19.90;99.90;;;;;;5093497;28;20460;-58
2023/09/13 05:02:20;;;;;;;56.33;41.10;;;19.90;99.90;;;;;;5093147;28;20974;-57
2023/09/13 05:04:48;;;;;;;59.67;41.53;;;19.90;99.90;;;;;;5093579;28;20471;-58
2023/09/13 05:07:14;;;;;;;55.83;37.70;;;19.90;99.90;;;;;;5093596;28;20454;-58
2023/09/13 05:09:41;;;;;;;54.70;38.80;;;19.80;99.90;;;;;;5093173;28;20981;-58
2023/09/13 05:12:09;;;;;;;52.40;39.00;;;19.80;99.90;;;;;;5093611;28;20443;-57
2023/09/13 05:14:37;;;;;;;43.50;35.43;;;19.70;99.90;;;;;;5093523;28;20440;-58
2023/09/13 05:17:04;;;;;;;45.23;34.77;;;19.70;99.90;;;;;;5093436;28;20452;-57
2023/09/13 05:19:30;;;;;;;46.93;33.27;;;19.60;99.90;;;;;;5093414;28;20467;-57
2023/09/13 05:21:57;;;;;;;41.97;33.10;;;19.60;99.90;;;;;;5093407;28;20440;-57
2023/09/13 05:24:24;;;;;;;39.93;32.43;;;19.60;99.90;;;;;;5092803;28;20871;-57
2023/09/13 05:26:51;;;;;;;38.97;31.33;;;19.60;99.90;;;;;;5093140;28;20439;-57
2023/09/13 05:29:19;;;;;;;39.13;31.80;;;19.60;99.90;;;;;;5093336;28;20470;-57
2023/09/13 05:31:45;;;;;;;46.47;32.57;;;19.60;99.90;;;;;;5092985;28;20448;-57
2023/09/13 05:34:12;;;;;;;47.43;35.20;;;19.70;99.90;;;;;;5088630;28;20464;-57
2023/09/13 05:36:39;;;;;;;46.80;32.50;;;19.70;99.90;;;;;;5073158;28;20451;-57
2023/09/13 05:39:05;;;;;;;47.93;34.90;;;19.70;99.90;;;;;;5073024;28;20476;-57
2023/09/13 05:41:32;;;;;;;46.20;34.47;;;19.80;99.90;;;;;;5073048;28;20448;-57
2023/09/13 05:43:59;;;;;;;49.93;37.93;;;19.80;99.90;;;;;;5072984;28;20527;-57
2023/09/13 05:46:27;;;;;;;47.60;35.00;;;19.80;99.90;;;;;;5072384;28;20476;-57
2023/09/13 05:48:54;;;;;;;46.60;35.60;;;19.90;99.90;;;;;;5072969;28;20460;-57
2023/09/13 05:51:21;;;;;;;47.83;37.83;;;19.90;99.90;;;;;;5073031;28;20445;-57
2023/09/13 05:53:48;;;;;;;44.40;33.73;;;19.90;99.90;;;;;;5072946;28;20448;-57
2023/09/13 05:56:14;;;;;;;48.60;35.53;;;19.90;99.90;;;;;;5072985;28;20448;-57
2023/09/13 05:58:43;;;;;;;47.53;36.60;;;19.90;99.90;;;;;;5072922;28;20465;-57
2023/09/13 06:01:10;;;;;;;50.83;37.73;;;19.90;99.90;;;;;;5072894;28;20440;-57
2023/09/13 06:03:38;;;;;;;49.07;36.37;;;19.90;99.90;;;;;;5072549;28;20934;-58
2023/09/13 06:06:05;;;;;;;43.07;34.30;;;19.90;99.90;;;;;;5072918;28;20480;-58
2023/09/13 06:08:32;;;;;;;43.93;34.40;;;19.90;99.90;;;;;;5072825;28;20472;-57
2023/09/13 06:10:58;;;;;;;48.53;33.43;;;19.90;99.90;;;;;;5074541;28;20448;-57
2023/09/13 06:13:25;;;;;;;42.57;31.10;;;19.90;99.90;;;;;;5076518;28;20520;-57
2023/09/13 06:15:52;;;;;;;41.07;30.80;;;19.90;99.90;;;;;;5076596;28;20436;-57
2023/09/13 06:18:18;;;;;;;38.37;31.40;;;19.90;99.90;;;;;;5076413;28;20444;-57
2023/09/13 06:20:46;;;;;;;36.10;28.53;;;19.90;99.90;;;;;;5076185;28;20449;-57
2023/09/13 06:23:34;;;;;;;35.00;27.70;;;19.90;99.90;;;;;;5076119;28;20453;-57
2023/09/13 06:26:01;;;;;;;35.30;28.20;;;20.00;99.90;;;;;;5076354;28;20501;-57
2023/09/13 06:28:28;;;;;;;31.83;27.23;;;20.00;99.90;;;;;;5090440;28;20816;-57
2023/09/13 06:30:56;;;;;;;34.87;27.73;;;20.00;99.90;;;;;;5096137;28;20446;-57
2023/09/13 06:33:23;;;;;;;36.13;28.00;;;20.00;99.90;;;;;;5091440;28;20501;-57
2023/09/13 06:35:51;;;;;;;33.73;26.47;;;20.00;99.90;;;;;;5081189;28;20455;-57
2023/09/13 06:38:18;;;;;;;34.17;27.20;;;19.90;99.90;;;;;;5076107;28;20517;-57
2023/09/13 06:40:47;;;;;;;36.70;30.40;;;19.90;99.90;;;;;;5076892;28;20445;-57
2023/09/13 06:43:14;;;;;;;35.00;26.47;;;19.90;99.90;;;;;;5076477;28;20448;-57
2023/09/13 06:45:41;;;;;;;34.43;27.67;;;19.90;99.90;;;;;;5076192;28;20522;-57
2023/09/13 06:48:08;;;;;;;33.83;27.27;;;19.90;99.90;;;;;;5076264;28;20447;-58
2023/09/13 06:50:35;;;;;;;36.53;28.07;;;20.00;99.90;;;;;;5076808;28;20472;-57
2023/09/13 06:53:03;;;;;;;34.00;27.40;;;20.00;99.90;;;;;;5075452;28;20964;-57
2023/09/13 06:55:31;;;;;;;36.80;28.10;;;20.00;99.90;;;;;;5076006;28;20494;-58
2023/09/13 06:57:58;;;;;;;34.37;26.80;;;20.00;99.90;;;;;;5075732;28;20532;-58
2023/09/13 07:00:24;;;;;;;33.20;26.13;;;20.10;99.90;;;;;;5075827;28;20978;-57
2023/09/13 07:02:51;;;;;;;34.73;27.10;;;20.20;99.90;;;;;;5075681;28;21032;-58
2023/09/13 07:05:18;;;;;;;38.83;28.40;;;20.20;99.90;;;;;;5075633;28;21027;-58
2023/09/13 07:07:44;;;;;;;32.37;27.07;;;20.30;99.90;;;;;;5075669;28;20453;-58
2023/09/13 07:10:13;;;;;;;35.33;29.03;;;20.20;99.90;;;;;;5075551;28;20656;-57
2023/09/13 07:12:40;;;;;;;32.47;27.13;;;20.30;99.90;;;;;;5075795;28;20449;-58
2023/09/13 07:15:08;;;;;;;32.60;27.47;;;20.40;99.90;;;;;;5075405;28;20441;-57
2023/09/13 07:17:34;;;;;;;32.90;26.90;;;20.30;99.90;;;;;;5075505;28;20453;-57
2023/09/13 07:20:04;;;;;;;33.60;28.33;;;20.30;99.90;;;;;;5075441;28;20469;-57
2023/09/13 07:22:31;;;;;;;30.67;25.27;;;20.40;99.90;;;;;;5075448;28;20432;-58
2023/09/13 07:24:58;;;;;;;35.60;26.80;;;20.40;99.90;;;;;;5074777;28;20456;-57
2023/09/13 07:27:26;;;;;;;37.93;24.87;;;20.40;99.90;;;;;;5075332;28;20447;-58
2023/09/13 07:29:52;;;;;;;29.40;25.20;;;20.50;99.90;;;;;;5074842;28;20969;-58
2023/09/13 07:32:19;;;;;;;29.87;25.37;;;20.60;99.90;;;;;;5074923;28;20946;-57
2023/09/13 07:34:46;;;;;;;26.93;23.40;;;20.70;99.90;;;;;;5074906;28;20441;-57
2023/09/13 07:37:12;;;;;;;27.53;21.10;;;20.80;99.90;;;;;;5075006;28;20441;-57
2023/09/13 07:39:41;;;;;;;26.17;21.10;;;20.90;99.90;;;;;;5075154;28;20468;-58
2023/09/13 07:42:08;;;;;;;24.50;19.80;;;21.00;99.90;;;;;;5075018;28;20449;-58
2023/09/13 07:44:36;;;;;;;28.37;21.13;;;21.00;99.30;;;;;;5074861;28;20452;-57
2023/09/13 07:47:03;;;;;;;21.67;18.57;;;20.90;99.20;;;;;;5074507;28;21024;-58
2023/09/13 07:49:29;;;;;;;25.83;20.30;;;20.90;99.40;;;;;;5074752;28;20466;-57
2023/09/13 07:51:56;;;;;;;28.27;20.23;;;20.90;99.50;;;;;;5074678;28;20452;-57
2023/09/13 07:54:23;;;;;;;23.20;18.83;;;21.00;99.90;;;;;;5074701;28;20455;-58
2023/09/13 07:56:50;;;;;;;28.80;20.53;;;21.00;99.70;;;;;;5074619;28;20445;-57
2023/09/13 07:59:18;;;;;;;29.00;20.90;;;21.20;99.70;;;;;;5075029;28;20465;-58
2023/09/13 08:01:47;;;;;;;24.03;20.17;;;21.20;99.40;;;;;;5074567;28;20467;-58
2023/09/13 08:04:13;;;;;;;24.97;20.80;;;21.30;99.30;;;;;;5074555;28;20537;-58
2023/09/13 08:06:41;;;;;;;25.70;19.73;;;21.40;99.30;;;;;;5074475;28;20480;-58
2023/09/13 08:09:08;;;;;;;23.20;19.03;;;21.60;99.20;;;;;;5074384;28;20544;-58
2023/09/13 08:11:35;;;;;;;22.10;17.50;;;21.70;98.50;;;;;;5074576;28;20487;-58
2023/09/13 08:14:02;;;;;;;26.30;18.30;;;21.80;97.00;;;;;;5074126;28;20441;-57
2023/09/13 08:16:29;;;;;;;22.50;17.63;;;21.90;97.40;;;;;;5073934;28;20968;-58
2023/09/13 08:18:57;;;;;;;22.23;19.17;;;21.90;97.60;;;;;;5074273;28;20471;-58
2023/09/13 08:21:24;;;;;;;22.40;18.27;;;22.00;96.80;;;;;;5074306;28;20441;-58
2023/09/13 08:23:50;;;;;;;22.90;20.20;;;22.00;97.00;;;;;;5074093;28;20449;-58
2023/09/13 08:26:17;;;;;;;27.37;20.40;;;21.90;97.00;;;;;;5074043;28;20484;-57
2023/09/13 08:28:44;;;;;;;26.60;19.70;;;21.70;97.10;;;;;;5073892;28;20476;-57
2023/09/13 08:31:11;;;;;;;25.70;21.07;;;21.70;97.40;;;;;;5073947;28;20445;-58
2023/09/13 08:33:38;;;;;;;29.83;20.10;;;21.70;97.90;;;;;;5073361;28;20448;-58
2023/09/13 08:36:07;;;;;;;28.77;21.50;;;21.70;97.90;;;;;;5073384;28;20468;-57
2023/09/13 08:38:33;;;;;;;29.40;22.77;;;21.70;98.20;;;;;;5073775;28;20489;-57
2023/09/13 08:41:01;;;;;;;31.93;21.40;;;21.60;98.00;;;;;;5073685;28;20448;-57
2023/09/13 08:43:29;;;;;;;31.33;20.80;;;21.70;98.40;;;;;;5072644;28;20486;-56
2023/09/13 08:45:56;;;;;;;28.27;21.63;;;21.70;98.10;;;;;;5073510;28;20514;-58
2023/09/13 08:48:23;;;;;;;26.30;21.03;;;21.80;98.00;;;;;;5073522;28;20449;-57
2023/09/13 08:50:50;;;;;;;26.70;20.97;;;21.90;98.10;;;;;;5074358;28;20444;-57
2023/09/13 08:53:18;;;;;;;23.10;18.83;;;22.00;97.40;;;;;;5078298;28;20453;-57
2023/09/13 08:55:47;;;;;;;25.70;18.30;;;22.00;97.20;;;;;;5073258;28;20817;-58
2023/09/13 08:58:13;;;;;;;24.27;18.97;;;22.00;97.00;;;;;;5073524;28;20472;-58
2023/09/13 09:00:43;;;;;;;27.30;19.57;;;22.10;97.40;;;;;;5073140;28;20823;-57
2023/09/13 09:03:13;;;;;;;25.27;18.30;;;22.10;97.30;;;;;;5074125;28;20444;-58
2023/09/13 09:05:42;;;;;;;23.33;18.33;;;22.00;96.90;;;;;;5073449;28;20441;-58
2023/09/13 09:08:10;;;;;;;26.20;19.03;;;22.00;97.10;;;;;;5072849;28;20455;-57
2023/09/13 09:10:38;;;;;;;25.03;20.00;;;21.90;97.40;;;;;;5073105;28;20540;-58
2023/09/13 09:13:06;;;;;;;20.73;18.17;;;21.90;97.50;;;;;;5073312;28;20455;-57
2023/09/13 09:15:35;;;;;;;20.60;17.47;;;22.00;97.50;;;;;;5073388;28;20452;-58
2023/09/13 09:18:06;;;;;;;21.93;17.53;;;22.20;97.20;;;;;;5073381;28;20437;-58
2023/09/13 09:20:33;;;;;;;19.47;16.20;;;22.40;96.90;;;;;;5073276;28;20476;-58
2023/09/13 09:23:00;;;;;;;21.57;16.43;;;22.60;96.90;;;;;;5073136;28;20452;-58
2023/09/13 09:25:28;;;;;;;18.40;16.47;;;22.90;95.80;;;;;;5073269;28;20441;-58
2023/09/13 09:27:56;;;;;;;22.17;16.80;;;23.00;95.40;;;;;;5072990;28;20827;-58
2023/09/13 09:30:31;;;;;;;19.20;16.20;;;23.20;95.20;;;;;;5073092;28;20476;-58
2023/09/13 09:33:01;;;;;;;17.30;13.77;;;23.30;93.90;;;;;;5073321;28;20433;-58
2023/09/13 09:35:28;;;;;;;17.03;15.00;;;23.40;92.70;;;;;;5073150;28;20437;-58
2023/09/13 09:37:54;;;;;;;17.67;13.00;;;23.40;92.60;;;;;;5073186;28;20441;-58
2023/09/13 09:40:21;;;;;;;16.40;14.60;;;23.50;92.60;;;;;;5073017;28;20468;-58
2023/09/13 09:42:53;;;;;;;18.40;14.40;;;23.40;91.70;;;;;;5073066;28;20449;-58
2023/09/13 09:45:21;;;;;;;15.07;12.07;;;23.40;92.70;;;;;;5073752;28;20417;-58
2023/09/13 09:47:49;;;;;;;14.03;12.63;;;23.40;93.20;;;;;;5076985;28;20491;-58
2023/09/13 09:50:16;;;;;;;14.80;13.37;;;23.50;92.90;;;;;;5077063;28;20465;-58
2023/09/13 09:52:44;;;;;;;16.97;14.07;;;23.60;92.90;;;;;;5077033;28;20471;-57
2023/09/13 09:55:15;;;;;;;14.30;12.67;;;23.60;92.60;;;;;;5077047;28;20452;-57
2023/09/13 09:57:46;;;;;;;14.23;12.73;;;23.80;92.30;;;;;;5077765;28;20435;-58
2023/09/13 10:00:14;;;;;;;16.53;14.27;;;23.80;91.90;;;;;;5077764;28;20461;-58
2023/09/13 10:02:44;;;;;;;17.17;14.07;;;23.70;92.10;;;;;;5077635;28;20456;-58
2023/09/13 10:05:13;;;;;;;15.60;13.17;;;23.70;92.90;;;;;;5078273;28;20428;-58
2023/09/13 10:07:41;;;;;;;14.77;12.37;;;23.90;92.70;;;;;;5077266;28;20605;-58
2023/09/13 10:10:09;;;;;;;14.07;12.53;;;24.10;91.80;;;;;;5076850;28;20586;-58
2023/09/13 10:12:43;;;;;;;15.80;13.73;;;24.30;90.90;;;;;;5076811;28;20452;-57
2023/09/13 10:15:11;;;;;;;16.13;12.40;;;24.50;90.80;;;;;;5076637;28;20435;-58
2023/09/13 10:17:39;;;;;;;12.47;11.27;;;24.80;90.70;;;;;;5076877;28;20433;-57
2023/09/13 10:20:14;;;;;;;12.57;11.17;;;25.00;86.80;;;;;;5076091;28;21006;-57
2023/09/13 10:22:43;;;;;;;15.90;11.60;;;25.10;89.00;;;;;;5076648;28;20429;-58
2023/09/13 10:25:12;;;;;;;12.57;11.07;;;25.40;88.60;;;;;;5075828;28;20467;-57
2023/09/13 10:27:41;;;;;;;18.53;12.47;;;25.40;85.80;;;;;;5076353;28;20480;-58
2023/09/13 10:30:11;;;;;;;13.50;12.10;;;25.70;85.80;;;;;;5076312;28;20463;-58
2023/09/13 10:32:47;;;;;;;12.97;11.67;;;25.70;84.50;;;;;;5076324;28;20472;-58
2023/09/13 10:35:17;;;;;;;13.50;11.70;;;25.70;85.80;;;;;;5076131;28;20433;-57
2023/09/13 10:37:51;;;;;;;13.90;12.50;;;25.40;85.20;;;;;;5075686;28;20487;-57
2023/09/13 10:40:23;;;;;;;13.80;10.30;;;25.20;87.30;;;;;;5076155;28;20465;-58
2023/09/13 10:42:50;;;;;;;12.33;11.03;;;24.90;87.20;;;;;;5075786;28;20903;-57
2023/09/13 10:45:18;;;;;;;11.43;10.20;;;24.80;87.80;;;;;;5075693;28;20961;-58
2023/09/13 10:47:46;;;;;;;12.80;10.73;;;24.60;87.80;;;;;;5075897;28;20476;-58
2023/09/13 10:50:15;;;;;;;18.37;12.20;;;24.40;88.70;;;;;;5075573;28;20518;-58
2023/09/13 10:52:44;;;;;;;16.80;12.33;;;24.30;90.30;;;;;;5075891;28;20449;-57
2023/09/13 10:55:12;;;;;;;13.17;11.93;;;24.20;90.60;;;;;;5075931;28;20472;-58
2023/09/13 10:57:40;;;;;;;14.00;12.50;;;24.10;90.80;;;;;;5075402;28;20473;-58
2023/09/13 11:00:09;;;;;;;16.43;13.17;;;24.00;91.20;;;;;;5075718;28;20473;-58
2023/09/13 11:02:36;;;;;;;12.47;11.17;;;23.80;91.50;;;;;;5075695;28;20441;-57
2023/09/13 11:05:04;;;;;;;6.70;5.53;;;23.60;91.70;;;;;;5075664;28;20444;-57
2023/09/13 11:07:33;;;;;;;4.63;4.13;;;23.50;92.40;;;;;;5075581;28;20476;-57
2023/09/13 11:10:11;;;;;;;5.20;4.57;;;23.20;92.30;;;;;;5075468;28;20469;-56
2023/09/13 11:12:39;;;;;;;4.00;2.70;;;23.00;93.00;;;;;;5075652;28;20425;-55
2023/09/13 11:15:13;;;;;;;2.00;1.80;;;22.80;93.30;;;;;;5075110;28;20790;-56
2023/09/13 11:17:41;;;;;;;1.80;1.63;;;22.60;93.30;;;;;;5075409;28;20474;-56
2023/09/13 11:20:21;;;;;;;1.40;1.30;;;22.40;93.50;;;;;;5075027;28;20525;-55
2023/09/13 11:23:08;;;;;;;1.73;1.47;;;22.20;93.40;;;;;;5075390;28;20459;-56
2023/09/13 11:25:36;;;;;;;2.67;1.80;;;22.00;93.50;;;;;;5075369;28;20417;-55
2023/09/13 11:28:28;;;;;;;2.73;1.73;;;21.80;93.80;;;;;;5074870;28;21023;-55
2023/09/13 11:30:57;;;;;;;4.00;2.33;;;21.70;94.30;;;;;;5074926;28;20801;-55
2023/09/13 11:33:24;;;;;;;2.90;2.37;;;21.70;94.80;;;;;;5074844;28;20445;-56
2023/09/13 11:35:51;;;;;;;2.90;2.70;;;21.70;94.90;;;;;;5074522;28;20876;-55
2023/09/13 11:38:19;;;;;;;3.83;2.57;;;21.70;94.50;;;;;;5074904;28;20433;-56
2023/09/13 11:40:47;;;;;;;2.23;2.03;;;21.70;94.50;;;;;;5074597;28;20829;-56
2023/09/13 11:43:21;;;;;;;3.43;3.13;;;21.70;94.50;;;;;;5075234;28;20464;-57
2023/09/13 11:45:49;;;;;;;2.90;2.70;;;21.70;94.50;;;;;;5074224;28;20842;-56
2023/09/13 11:48:21;;;;;;;4.70;3.10;;;21.80;94.60;;;;;;5074689;28;20538;-57
2023/09/13 11:50:51;;;;;;;2.50;2.40;;;21.90;95.10;;;;;;5074803;28;20793;-57
2023/09/13 11:53:25;;;;;;;5.23;3.40;;;22.00;95.00;;;;;;5074690;28;20491;-57
2023/09/13 11:55:55;;;;;;;3.50;3.07;;;22.10;95.00;;;;;;5074731;28;20841;-58
2023/09/13 11:58:31;;;;;;;3.70;3.50;;;22.10;95.00;;;;;;5074555;28;20448;-58
2023/09/13 12:00:59;;;;;;;4.90;3.30;;;22.20;95.00;;;;;;5074671;28;20425;-58
2023/09/13 12:03:27;;;;;;;3.23;2.97;;;22.30;94.90;;;;;;5074305;28;20814;-57
2023/09/13 12:05:54;;;;;;;4.60;4.20;;;22.50;95.00;;;;;;5074107;28;20968;-58
2023/09/13 12:08:23;;;;;;;4.27;3.97;;;22.60;94.80;;;;;;5073445;28;20481;-58
2023/09/13 12:10:51;;;;;;;3.70;3.40;;;22.70;94.40;;;;;;5074366;28;20453;-57
2023/09/13 12:13:18;;;;;;;3.63;3.33;;;22.80;93.40;;;;;;5074153;28;20445;-57
2023/09/13 12:15:58;;;;;;;3.93;3.53;;;22.70;93.00;;;;;;5074287;28;20441;-58
2023/09/13 12:18:25;;;;;;;4.13;3.43;;;22.70;93.30;;;;;;5078980;28;20448;-57
2023/09/13 12:20:52;;;;;;;3.17;2.87;;;22.70;93.50;;;;;;5073764;28;20448;-58
2023/09/13 12:23:18;;;;;;;3.20;2.90;;;22.60;92.80;;;;;;5073966;28;20444;-57
2023/09/13 12:25:47;;;;;;;3.40;2.83;;;22.50;92.90;;;;;;5074143;28;20421;-58
2023/09/13 12:28:26;;;;;;;2.67;2.47;;;22.50;93.10;;;;;;5073908;28;20575;-58
2023/09/13 12:30:53;;;;;;;3.13;2.83;;;22.40;93.00;;;;;;5074063;28;20922;-58
2023/09/13 12:33:21;;;;;;;3.03;2.83;;;22.40;93.40;;;;;;5073953;28;20469;-57
2023/09/13 12:35:50;;;;;;;2.50;2.30;;;22.40;93.30;;;;;;5073986;28;20444;-58